PWSweather.com
Personal Weather Stations
Station Observations
CARNOUSTIE
Pambride, CarnoustieGB DD7 6DY

PambrideCarnoustieGB DD7 6DY

Lat: 56.50889, Lon: -2.7051

Elevation: 105

Station Type: Oregon Scientific WMR200

www.carnoustieweather.co.uk

High Low Average
Temperature 53.7°F12.1°C 36.1°F2.3°C 45.5°F7.5°C
Dew Point 46.4°F8.0°C 30.9°F-0.6°C 38.3°F3.5°C
Winds 12.7 mph 20.4 kmh Calm Calm 6.0 mph SSW9.7 kmh SSW
Wind Gusts 19.6 mph31.5 kmh -- 8.0 mph12.9 kmh
Humidity 84% 62% 76%
Pressure 29.74 in1007.1 mb 29.50 in999.0 mb -
Precipitation 0.09 in2.3 mm - -
Hour Temp Dew Point Humidity Winds Wind Gusts Pressure Precip Precip Rate Daily Precip Total
12:00 AM 44.4°F6.9°C 38.0°F3.3°C 78% 3.5 mph WSW5.6 kmh WSW 3.5 mph5.6 kmh 29.50 in999.0 mb - 0.00 in0.0 mm 0.00 in0.0 mm
12:10 AM 44.0°F6.7°C 37.6°F3.1°C 78% 3.5 mph WSW5.6 kmh WSW 3.5 mph5.6 kmh 29.50 in999.0 mb - 0.00 in0.0 mm 0.00 in0.0 mm
12:15 AM 43.7°F6.5°C 37.2°F2.9°C 78% 3.5 mph WSW5.6 kmh WSW 3.5 mph5.6 kmh 29.50 in999.0 mb - 0.00 in0.0 mm 0.00 in0.0 mm
12:20 AM 43.5°F6.4°C 37.1°F2.8°C 78% 3.5 mph W5.6 kmh W 4.6 mph7.4 kmh 29.50 in999.0 mb - 0.00 in0.0 mm 0.00 in0.0 mm
12:25 AM 43.3°F6.3°C 36.9°F2.7°C 78% 2.3 mph W3.7 kmh W 3.5 mph5.6 kmh 29.50 in999.0 mb - 0.00 in0.0 mm 0.00 in0.0 mm
12:30 AM 43.2°F6.2°C 36.8°F2.7°C 78% 3.5 mph WSW5.6 kmh WSW 4.6 mph7.4 kmh 29.50 in999.0 mb - 0.00 in0.0 mm 0.00 in0.0 mm
12:35 AM 43.0°F6.1°C 36.6°F2.6°C 78% 3.5 mph W5.6 kmh W 4.6 mph7.4 kmh 29.50 in999.0 mb - 0.00 in0.0 mm 0.00 in0.0 mm
12:40 AM 43.0°F6.1°C 36.6°F2.6°C 78% 3.5 mph W5.6 kmh W 3.5 mph5.6 kmh 29.50 in999.0 mb - 0.00 in0.0 mm 0.00 in0.0 mm
12:45 AM 42.8°F6.0°C 36.4°F2.4°C 78% 3.5 mph W5.6 kmh W 3.5 mph5.6 kmh 29.50 in999.0 mb - 0.00 in0.0 mm 0.00 in0.0 mm
12:50 AM 42.5°F5.8°C 36.1°F2.3°C 78% 3.5 mph W5.6 kmh W 3.5 mph5.6 kmh 29.50 in999.0 mb - 0.00 in0.0 mm 0.00 in0.0 mm
12:55 AM 42.3°F5.7°C 35.9°F2.2°C 78% 2.3 mph W3.7 kmh W 3.5 mph5.6 kmh 29.53 in1000.0 mb - 0.00 in0.0 mm 0.00 in0.0 mm
01:00 AM 41.7°F5.4°C 35.4°F1.9°C 78% 1.2 mph W1.9 kmh W 2.3 mph3.7 kmh 29.53 in1000.0 mb - 0.00 in0.0 mm 0.00 in0.0 mm
01:10 AM 40.9°F4.9°C 34.6°F1.4°C 78% 3.5 mph WSW5.6 kmh WSW 4.6 mph7.4 kmh 29.53 in1000.0 mb - 0.00 in0.0 mm 0.00 in0.0 mm
01:15 AM 40.8°F4.9°C 34.5°F1.4°C 78% 3.5 mph W5.6 kmh W 3.5 mph5.6 kmh 29.53 in1000.0 mb - 0.00 in0.0 mm 0.00 in0.0 mm
01:20 AM 40.6°F4.8°C 34.3°F1.3°C 78% 3.5 mph WNW5.6 kmh WNW 3.5 mph5.6 kmh 29.53 in1000.0 mb - 0.00 in0.0 mm 0.00 in0.0 mm
01:25 AM 40.5°F4.7°C 34.1°F1.2°C 78% 2.3 mph W3.7 kmh W 3.5 mph5.6 kmh 29.56 in1001.0 mb - 0.00 in0.0 mm 0.00 in0.0 mm
01:30 AM 40.3°F4.6°C 34.0°F1.1°C 78% 2.3 mph W3.7 kmh W 2.3 mph3.7 kmh 29.56 in1001.0 mb - 0.00 in0.0 mm 0.00 in0.0 mm
01:35 AM 40.3°F4.6°C 34.0°F1.1°C 78% 3.5 mph W5.6 kmh W 3.5 mph5.6 kmh 29.56 in1001.0 mb - 0.00 in0.0 mm 0.00 in0.0 mm
01:40 AM 40.3°F4.6°C 34.3°F1.3°C 79% 2.3 mph W3.7 kmh W 3.5 mph5.6 kmh 29.53 in1000.0 mb - 0.00 in0.0 mm 0.00 in0.0 mm
01:45 AM 40.1°F4.5°C 33.8°F1.0°C 78% 3.5 mph W5.6 kmh W 3.5 mph5.6 kmh 29.53 in1000.0 mb - 0.00 in0.0 mm 0.00 in0.0 mm
01:50 AM 39.9°F4.4°C 33.6°F0.9°C 78% 4.6 mph WNW7.4 kmh WNW 4.6 mph7.4 kmh 29.53 in1000.0 mb - 0.00 in0.0 mm 0.00 in0.0 mm
01:55 AM 39.7°F4.3°C 33.4°F0.8°C 78% 3.5 mph W5.6 kmh W 3.5 mph5.6 kmh 29.56 in1001.0 mb - 0.00 in0.0 mm 0.00 in0.0 mm
02:00 AM 39.7°F4.3°C 33.8°F1.0°C 79% 3.5 mph W5.6 kmh W 4.6 mph7.4 kmh 29.56 in1001.0 mb - 0.00 in0.0 mm 0.00 in0.0 mm
02:10 AM 40.3°F4.6°C 34.3°F1.3°C 79% 4.6 mph WSW7.4 kmh WSW 6.9 mph11.1 kmh 29.56 in1001.0 mb - 0.00 in0.0 mm 0.00 in0.0 mm
02:15 AM 40.9°F4.9°C 35.2°F1.8°C 80% 4.6 mph WSW7.4 kmh WSW 6.9 mph11.1 kmh 29.56 in1001.0 mb - 0.00 in0.0 mm 0.00 in0.0 mm
02:20 AM 41.5°F5.3°C 35.8°F2.1°C 80% 4.6 mph W7.4 kmh W 5.8 mph9.3 kmh 29.56 in1001.0 mb - 0.00 in0.0 mm 0.00 in0.0 mm
02:25 AM 41.7°F5.4°C 36.0°F2.2°C 80% 3.5 mph WSW5.6 kmh WSW 5.8 mph9.3 kmh 29.59 in1002.0 mb - 0.00 in0.0 mm 0.00 in0.0 mm
02:30 AM 41.4°F5.2°C 35.7°F2.1°C 80% 2.3 mph WNW3.7 kmh WNW 2.3 mph3.7 kmh 29.59 in1002.0 mb - 0.00 in0.0 mm 0.00 in0.0 mm
02:35 AM 40.5°F4.7°C 34.9°F1.6°C 80% 3.5 mph WNW5.6 kmh WNW 3.5 mph5.6 kmh 29.59 in1002.0 mb - 0.00 in0.0 mm 0.00 in0.0 mm
02:40 AM 40.3°F4.6°C 34.6°F1.4°C 80% 3.5 mph W5.6 kmh W 4.6 mph7.4 kmh 29.59 in1002.0 mb - 0.00 in0.0 mm 0.00 in0.0 mm
02:45 AM 40.3°F4.6°C 34.6°F1.4°C 80% 3.5 mph W5.6 kmh W 4.6 mph7.4 kmh 29.59 in1002.0 mb - 0.00 in0.0 mm 0.00 in0.0 mm
02:50 AM 40.1°F4.5°C 34.4°F1.3°C 80% 2.3 mph WNW3.7 kmh WNW 3.5 mph5.6 kmh 29.59 in1002.0 mb - 0.00 in0.0 mm 0.00 in0.0 mm
02:55 AM 39.9°F4.4°C 34.2°F1.2°C 80% 2.3 mph NW3.7 kmh NW 2.3 mph3.7 kmh 29.59 in1002.0 mb - 0.00 in0.0 mm 0.00 in0.0 mm
03:00 AM 39.4°F4.1°C 33.5°F0.8°C 79% 1.2 mph WNW1.9 kmh WNW 2.3 mph3.7 kmh 29.59 in1002.0 mb - 0.00 in0.0 mm 0.00 in0.0 mm
03:10 AM 38.8°F3.8°C 32.9°F0.5°C 79% 2.3 mph WNW3.7 kmh WNW 2.3 mph3.7 kmh 29.59 in1002.0 mb - 0.00 in0.0 mm 0.00 in0.0 mm
03:15 AM 38.5°F3.6°C 32.5°F0.3°C 79% Calm Calm -- 29.59 in1002.0 mb - 0.00 in0.0 mm 0.00 in0.0 mm
03:20 AM 38.1°F3.4°C 32.2°F0.1°C 79% 1.2 mph SW1.9 kmh SW 2.3 mph3.7 kmh 29.59 in1002.0 mb - 0.00 in0.0 mm 0.00 in0.0 mm
03:25 AM 37.9°F3.3°C 32.0°F0.0°C 79% 1.2 mph SW1.9 kmh SW 2.3 mph3.7 kmh 29.62 in1003.0 mb - 0.00 in0.0 mm 0.00 in0.0 mm
03:30 AM 37.8°F3.2°C 31.8°F-0.1°C 79% 1.2 mph SSW1.9 kmh SSW 2.3 mph3.7 kmh 29.62 in1003.0 mb - 0.00 in0.0 mm 0.00 in0.0 mm
03:35 AM 37.4°F3.0°C 31.5°F-0.3°C 79% 2.3 mph SSW3.7 kmh SSW 2.3 mph3.7 kmh 29.62 in1003.0 mb - 0.00 in0.0 mm 0.00 in0.0 mm
03:40 AM 37.6°F3.1°C 31.7°F-0.2°C 79% 2.3 mph SSW3.7 kmh SSW 2.3 mph3.7 kmh 29.62 in1003.0 mb - 0.00 in0.0 mm 0.00 in0.0 mm
03:45 AM 37.9°F3.3°C 32.3°F0.2°C 80% 1.2 mph SW1.9 kmh SW 2.3 mph3.7 kmh 29.62 in1003.0 mb - 0.00 in0.0 mm 0.00 in0.0 mm
03:50 AM 38.1°F3.4°C 32.5°F0.3°C 80% 1.2 mph WSW1.9 kmh WSW 1.2 mph1.9 kmh 29.62 in1003.0 mb - 0.00 in0.0 mm 0.00 in0.0 mm
03:55 AM 38.3°F3.5°C 32.7°F0.4°C 80% Calm Calm -- 29.62 in1003.0 mb - 0.00 in0.0 mm 0.00 in0.0 mm
04:00 AM 38.1°F3.4°C 32.5°F0.3°C 80% 1.2 mph WSW1.9 kmh WSW 1.2 mph1.9 kmh 29.62 in1003.0 mb - 0.00 in0.0 mm 0.00 in0.0 mm
04:10 AM 37.9°F3.3°C 32.3°F0.2°C 80% Calm Calm -- 29.62 in1003.0 mb - 0.00 in0.0 mm 0.00 in0.0 mm
04:15 AM 38.1°F3.4°C 32.8°F0.4°C 81% 1.2 mph WNW1.9 kmh WNW 1.2 mph1.9 kmh 29.62 in1003.0 mb - 0.00 in0.0 mm 0.00 in0.0 mm
04:20 AM 38.3°F3.5°C 33.0°F0.6°C 81% 2.3 mph NW3.7 kmh NW 2.3 mph3.7 kmh 29.62 in1003.0 mb - 0.00 in0.0 mm 0.00 in0.0 mm
04:25 AM 38.1°F3.4°C 32.8°F0.4°C 81% 2.3 mph NNW3.7 kmh NNW 2.3 mph3.7 kmh 29.62 in1003.0 mb - 0.00 in0.0 mm 0.00 in0.0 mm
04:30 AM 37.9°F3.3°C 32.3°F0.2°C 80% 2.3 mph NNW3.7 kmh NNW 2.3 mph3.7 kmh 29.62 in1003.0 mb - 0.00 in0.0 mm 0.00 in0.0 mm
04:35 AM 37.8°F3.2°C 32.1°F0.1°C 80% 2.3 mph 3.7 kmh 3.5 mph5.6 kmh 29.62 in1003.0 mb - 0.00 in0.0 mm 0.00 in0.0 mm
04:40 AM 37.8°F3.2°C 32.1°F0.1°C 80% 2.3 mph N3.7 kmh N 2.3 mph3.7 kmh 29.62 in1003.0 mb - 0.00 in0.0 mm 0.00 in0.0 mm
04:45 AM 37.8°F3.2°C 32.5°F0.3°C 81% 2.3 mph N3.7 kmh N 2.3 mph3.7 kmh 29.62 in1003.0 mb - 0.00 in0.0 mm 0.00 in0.0 mm
04:50 AM 37.9°F3.3°C 32.5°F0.3°C 81% 2.3 mph 3.7 kmh 3.5 mph5.6 kmh 29.62 in1003.0 mb - 0.00 in0.0 mm 0.00 in0.0 mm
04:55 AM 37.9°F3.3°C 32.6°F0.3°C 81% 2.3 mph NNW3.7 kmh NNW 2.3 mph3.7 kmh 29.65 in1004.1 mb - 0.00 in0.0 mm 0.00 in0.0 mm
05:00 AM 37.9°F3.3°C 32.6°F0.3°C 81% 2.3 mph NW3.7 kmh NW 2.3 mph3.7 kmh 29.65 in1004.1 mb - 0.00 in0.0 mm 0.00 in0.0 mm
05:10 AM 37.9°F3.3°C 32.6°F0.3°C 81% 2.3 mph NW3.7 kmh NW 2.3 mph3.7 kmh 29.65 in1004.1 mb - 0.00 in0.0 mm 0.00 in0.0 mm
05:15 AM 37.5°F3.1°C 32.2°F0.1°C 81% 2.3 mph NE3.7 kmh NE 2.3 mph3.7 kmh 29.65 in1004.1 mb - 0.00 in0.0 mm 0.00 in0.0 mm
05:20 AM 37.0°F2.8°C 31.8°F-0.1°C 81% 3.5 mph NNE5.6 kmh NNE 3.5 mph5.6 kmh 29.65 in1004.1 mb - 0.00 in0.0 mm 0.00 in0.0 mm
05:25 AM 37.2°F2.9°C 31.9°F-0.1°C 81% 2.3 mph 3.7 kmh 2.3 mph3.7 kmh 29.65 in1004.1 mb - 0.00 in0.0 mm 0.00 in0.0 mm
05:30 AM 37.4°F3.0°C 32.1°F0.1°C 81% 2.3 mph NW3.7 kmh NW 2.3 mph3.7 kmh 29.65 in1004.1 mb - 0.00 in0.0 mm 0.00 in0.0 mm
05:35 AM 37.0°F2.8°C 31.8°F-0.1°C 81% 2.3 mph NNW3.7 kmh NNW 2.3 mph3.7 kmh 29.65 in1004.1 mb - 0.00 in0.0 mm 0.00 in0.0 mm
05:40 AM 36.9°F2.7°C 31.6°F-0.2°C 81% 2.3 mph NNW3.7 kmh NNW 2.3 mph3.7 kmh 29.65 in1004.1 mb - 0.00 in0.0 mm 0.00 in0.0 mm
05:45 AM 36.8°F2.7°C 31.5°F-0.3°C 81% Calm Calm -- 29.65 in1004.1 mb - 0.00 in0.0 mm 0.00 in0.0 mm
05:50 AM 36.5°F2.5°C 31.2°F-0.4°C 81% Calm Calm -- 29.65 in1004.1 mb - 0.00 in0.0 mm 0.00 in0.0 mm
05:55 AM 36.3°F2.4°C 31.0°F-0.6°C 81% Calm Calm -- 29.65 in1004.1 mb - 0.00 in0.0 mm 0.00 in0.0 mm
06:00 AM 36.3°F2.4°C 31.0°F-0.6°C 81% Calm Calm -- 29.65 in1004.1 mb - 0.00 in0.0 mm 0.00 in0.0 mm
06:10 AM 36.3°F2.4°C 31.0°F-0.6°C 81% 2.3 mph W3.7 kmh W 2.3 mph3.7 kmh 29.68 in1005.1 mb - 0.00 in0.0 mm 0.00 in0.0 mm
06:15 AM 36.3°F2.4°C 31.0°F-0.6°C 81% 1.2 mph W1.9 kmh W 2.3 mph3.7 kmh 29.68 in1005.1 mb - 0.00 in0.0 mm 0.00 in0.0 mm
06:20 AM 36.1°F2.3°C 30.9°F-0.6°C 81% 2.3 mph WNW3.7 kmh WNW 2.3 mph3.7 kmh 29.68 in1005.1 mb - 0.00 in0.0 mm 0.00 in0.0 mm
06:25 AM 36.2°F2.3°C 30.9°F-0.6°C 81% 2.3 mph WNW3.7 kmh WNW 3.5 mph5.6 kmh 29.68 in1005.1 mb - 0.00 in0.0 mm 0.00 in0.0 mm
06:30 AM 36.3°F2.4°C 31.0°F-0.6°C 81% 3.5 mph WNW5.6 kmh WNW 3.5 mph5.6 kmh 29.68 in1005.1 mb - 0.00 in0.0 mm 0.00 in0.0 mm
06:35 AM 36.5°F2.5°C 31.2°F-0.4°C 81% 3.5 mph WNW5.6 kmh WNW 3.5 mph5.6 kmh 29.68 in1005.1 mb - 0.00 in0.0 mm 0.00 in0.0 mm
06:40 AM 36.7°F2.6°C 31.7°F-0.2°C 82% 3.5 mph NW5.6 kmh NW 3.5 mph5.6 kmh 29.68 in1005.1 mb - 0.00 in0.0 mm 0.00 in0.0 mm
06:45 AM 37.0°F2.8°C 32.0°F0.0°C 82% 3.5 mph NW5.6 kmh NW 3.5 mph5.6 kmh 29.68 in1005.1 mb - 0.00 in0.0 mm 0.00 in0.0 mm
06:50 AM 37.2°F2.9°C 32.2°F0.1°C 82% 2.3 mph NW3.7 kmh NW 2.3 mph3.7 kmh 29.68 in1005.1 mb - 0.00 in0.0 mm 0.00 in0.0 mm
06:55 AM 37.3°F2.9°C 32.4°F0.2°C 82% 2.3 mph WNW3.7 kmh WNW 3.5 mph5.6 kmh 29.68 in1005.1 mb - 0.00 in0.0 mm 0.00 in0.0 mm
07:00 AM 37.2°F2.9°C 32.2°F0.1°C 82% 3.5 mph WNW5.6 kmh WNW 3.5 mph5.6 kmh 29.68 in1005.1 mb - 0.00 in0.0 mm 0.00 in0.0 mm
07:10 AM 37.4°F3.0°C 32.4°F0.2°C 82% 2.3 mph W3.7 kmh W 2.3 mph3.7 kmh 29.65 in1004.1 mb - 0.00 in0.0 mm 0.00 in0.0 mm
07:15 AM 37.5°F3.1°C 32.5°F0.3°C 82% 3.5 mph WNW5.6 kmh WNW 4.6 mph7.4 kmh 29.65 in1004.1 mb - 0.00 in0.0 mm 0.00 in0.0 mm
07:20 AM 37.4°F3.0°C 32.4°F0.2°C 82% 1.2 mph NW1.9 kmh NW 2.3 mph3.7 kmh 29.65 in1004.1 mb - 0.00 in0.0 mm 0.00 in0.0 mm
07:25 AM 37.0°F2.8°C 32.0°F0.0°C 82% 1.2 mph WNW1.9 kmh WNW 2.3 mph3.7 kmh 29.68 in1005.1 mb - 0.00 in0.0 mm 0.00 in0.0 mm
07:30 AM 36.7°F2.6°C 31.7°F-0.2°C 82% 2.3 mph NW3.7 kmh NW 2.3 mph3.7 kmh 29.68 in1005.1 mb - 0.00 in0.0 mm 0.00 in0.0 mm
07:35 AM 36.6°F2.6°C 31.7°F-0.2°C 82% Calm Calm -- 29.68 in1005.1 mb - 0.00 in0.0 mm 0.00 in0.0 mm
07:40 AM 36.3°F2.4°C 31.4°F-0.3°C 82% 1.2 mph NW1.9 kmh NW 2.3 mph3.7 kmh 29.68 in1005.1 mb - 0.00 in0.0 mm 0.00 in0.0 mm
07:45 AM 36.1°F2.3°C 31.2°F-0.4°C 82% 2.3 mph N3.7 kmh N 2.3 mph3.7 kmh 29.68 in1005.1 mb - 0.00 in0.0 mm 0.00 in0.0 mm
07:50 AM 36.3°F2.4°C 31.4°F-0.3°C 82% 2.3 mph NW3.7 kmh NW 3.5 mph5.6 kmh 29.68 in1005.1 mb - 0.00 in0.0 mm 0.00 in0.0 mm
07:55 AM 36.3°F2.4°C 31.4°F-0.3°C 82% 2.3 mph NNW3.7 kmh NNW 2.3 mph3.7 kmh 29.68 in1005.1 mb - 0.00 in0.0 mm 0.00 in0.0 mm
08:00 AM 36.6°F2.6°C 31.6°F-0.2°C 82% 2.3 mph NW3.7 kmh NW 2.3 mph3.7 kmh 29.68 in1005.1 mb - 0.00 in0.0 mm 0.00 in0.0 mm
08:10 AM 36.7°F2.6°C 31.7°F-0.2°C 82% 2.3 mph 3.7 kmh 3.5 mph5.6 kmh 29.68 in1005.1 mb - 0.00 in0.0 mm 0.00 in0.0 mm
08:15 AM 36.9°F2.7°C 31.9°F-0.1°C 82% 3.5 mph 5.6 kmh 3.5 mph5.6 kmh 29.68 in1005.1 mb - 0.00 in0.0 mm 0.00 in0.0 mm
08:20 AM 37.1°F2.8°C 32.4°F0.2°C 83% 2.3 mph NE3.7 kmh NE 3.5 mph5.6 kmh 29.68 in1005.1 mb - 0.00 in0.0 mm 0.00 in0.0 mm
08:25 AM 37.5°F3.1°C 32.5°F0.3°C 82% 2.3 mph ENE3.7 kmh ENE 2.3 mph3.7 kmh 29.68 in1005.1 mb - 0.00 in0.0 mm 0.00 in0.0 mm
08:30 AM 38.1°F3.4°C 33.4°F0.8°C 83% 3.5 mph ENE5.6 kmh ENE 3.5 mph5.6 kmh 29.68 in1005.1 mb - 0.00 in0.0 mm 0.00 in0.0 mm
08:35 AM 38.7°F3.7°C 33.9°F1.1°C 83% 1.2 mph ENE1.9 kmh ENE 2.3 mph3.7 kmh 29.68 in1005.1 mb - 0.00 in0.0 mm 0.00 in0.0 mm
08:40 AM 39.5°F4.2°C 34.8°F1.6°C 83% 3.5 mph SE5.6 kmh SE 4.6 mph7.4 kmh 29.68 in1005.1 mb - 0.00 in0.0 mm 0.00 in0.0 mm
08:45 AM 39.9°F4.4°C 35.2°F1.8°C 83% 3.5 mph S5.6 kmh S 3.5 mph5.6 kmh 29.68 in1005.1 mb - 0.00 in0.0 mm 0.00 in0.0 mm
08:50 AM 40.1°F4.5°C 35.4°F1.9°C 83% 3.5 mph SSW5.6 kmh SSW 3.5 mph5.6 kmh 29.68 in1005.1 mb - 0.00 in0.0 mm 0.00 in0.0 mm
08:55 AM 40.5°F4.7°C 36.0°F2.2°C 84% 3.5 mph SSE5.6 kmh SSE 5.8 mph9.3 kmh 29.71 in1006.1 mb - 0.00 in0.0 mm 0.00 in0.0 mm
09:00 AM 41.2°F5.1°C 36.4°F2.4°C 83% 4.6 mph S7.4 kmh S 6.9 mph11.1 kmh 29.71 in1006.1 mb - 0.00 in0.0 mm 0.00 in0.0 mm
09:10 AM 42.2°F5.7°C 37.7°F3.2°C 84% 4.6 mph S7.4 kmh S 5.8 mph9.3 kmh 29.71 in1006.1 mb - 0.00 in0.0 mm 0.00 in0.0 mm
09:15 AM 42.6°F5.9°C 38.1°F3.4°C 84% 3.5 mph S5.6 kmh S 4.6 mph7.4 kmh 29.71 in1006.1 mb - 0.00 in0.0 mm 0.00 in0.0 mm
09:20 AM 43.2°F6.2°C 38.7°F3.7°C 84% 6.9 mph S11.1 kmh S 10.4 mph16.7 kmh 29.71 in1006.1 mb - 0.00 in0.0 mm 0.00 in0.0 mm
09:25 AM 44.1°F6.7°C 39.5°F4.2°C 84% 5.8 mph SSE9.3 kmh SSE 6.9 mph11.1 kmh 29.71 in1006.1 mb - 0.02 in0.5 mm 0.02 in0.5 mm
09:30 AM 44.7°F7.1°C 40.1°F4.5°C 84% 8.1 mph S13.0 kmh S 13.8 mph22.2 kmh 29.71 in1006.1 mb - 0.02 in0.5 mm 0.02 in0.5 mm
09:35 AM 45.1°F7.3°C 40.6°F4.8°C 84% 9.2 mph S14.8 kmh S 12.7 mph20.4 kmh 29.71 in1006.1 mb - 0.02 in0.5 mm 0.02 in0.5 mm
09:40 AM 45.1°F7.3°C 40.6°F4.8°C 84% 8.1 mph SSE13.0 kmh SSE 12.7 mph20.4 kmh 29.71 in1006.1 mb - 0.02 in0.5 mm 0.02 in0.5 mm
09:45 AM 45.1°F7.3°C 40.6°F4.8°C 84% 5.8 mph S9.3 kmh S 6.9 mph11.1 kmh 29.71 in1006.1 mb - 0.02 in0.5 mm 0.02 in0.5 mm
09:50 AM 45.3°F7.4°C 40.8°F4.9°C 84% 6.9 mph S11.1 kmh S 8.1 mph13.0 kmh 29.71 in1006.1 mb - 0.02 in0.5 mm 0.02 in0.5 mm
09:55 AM 45.3°F7.4°C 40.8°F4.9°C 84% 4.6 mph S7.4 kmh S 8.1 mph13.0 kmh 29.71 in1006.1 mb - 0.02 in0.5 mm 0.02 in0.5 mm
10:00 AM 45.6°F7.6°C 41.0°F5.0°C 84% 3.5 mph SSE5.6 kmh SSE 6.9 mph11.1 kmh 29.71 in1006.1 mb - 0.02 in0.5 mm 0.02 in0.5 mm
10:10 AM 47.3°F8.5°C 42.7°F5.9°C 84% 5.8 mph SSW9.3 kmh SSW 8.1 mph13.0 kmh 29.71 in1006.1 mb - 0.02 in0.5 mm 0.02 in0.5 mm
10:15 AM 48.2°F9.0°C 43.6°F6.4°C 84% 5.8 mph S9.3 kmh S 5.8 mph9.3 kmh 29.71 in1006.1 mb - 0.02 in0.5 mm 0.02 in0.5 mm
10:20 AM 48.6°F9.2°C 43.9°F6.6°C 84% 3.5 mph S5.6 kmh S 3.5 mph5.6 kmh 29.71 in1006.1 mb - 0.02 in0.5 mm 0.02 in0.5 mm
10:25 AM 50.1°F10.1°C 45.5°F7.5°C 84% 6.9 mph S11.1 kmh S 11.5 mph18.5 kmh 29.71 in1006.1 mb - 0.00 in0.0 mm 0.02 in0.5 mm
10:30 AM 50.6°F10.3°C 45.9°F7.7°C 84% 5.8 mph SSE9.3 kmh SSE 8.1 mph13.0 kmh 29.71 in1006.1 mb - 0.00 in0.0 mm 0.02 in0.5 mm
10:35 AM 51.1°F10.6°C 46.4°F8.0°C 84% 6.9 mph S11.1 kmh S 12.7 mph20.4 kmh 29.71 in1006.1 mb - 0.00 in0.0 mm 0.02 in0.5 mm
10:40 AM 51.3°F10.7°C 46.3°F7.9°C 83% 6.9 mph S11.1 kmh S 8.1 mph13.0 kmh 29.71 in1006.1 mb - 0.00 in0.0 mm 0.02 in0.5 mm
10:45 AM 51.4°F10.8°C 45.8°F7.7°C 81% 6.9 mph SSW11.1 kmh SSW 9.2 mph14.8 kmh 29.71 in1006.1 mb - 0.00 in0.0 mm 0.02 in0.5 mm
10:50 AM 51.8°F11.0°C 45.2°F7.3°C 78% 8.1 mph S13.0 kmh S 9.2 mph14.8 kmh 29.71 in1006.1 mb - 0.00 in0.0 mm 0.02 in0.5 mm
10:55 AM 51.6°F10.9°C 43.5°F6.4°C 74% 5.8 mph S9.3 kmh S 6.9 mph11.1 kmh 29.71 in1006.1 mb - 0.00 in0.0 mm 0.02 in0.5 mm
11:00 AM 52.2°F11.2°C 43.8°F6.6°C 73% 6.9 mph SSE11.1 kmh SSE 9.2 mph14.8 kmh 29.71 in1006.1 mb - 0.00 in0.0 mm 0.02 in0.5 mm
11:10 AM 52.9°F11.6°C 43.7°F6.5°C 71% 4.6 mph S7.4 kmh S 4.6 mph7.4 kmh 29.71 in1006.1 mb - 0.00 in0.0 mm 0.02 in0.5 mm
11:15 AM 53.1°F11.7°C 43.5°F6.4°C 70% 4.6 mph S7.4 kmh S 5.8 mph9.3 kmh 29.71 in1006.1 mb - 0.00 in0.0 mm 0.02 in0.5 mm
11:20 AM 53.1°F11.7°C 42.8°F6.0°C 68% 5.8 mph S9.3 kmh S 5.8 mph9.3 kmh 29.71 in1006.1 mb - 0.00 in0.0 mm 0.02 in0.5 mm
11:25 AM 53.7°F12.1°C 43.0°F6.1°C 67% 3.5 mph S5.6 kmh S 5.8 mph9.3 kmh 29.71 in1006.1 mb - 0.00 in0.0 mm 0.02 in0.5 mm
11:30 AM 53.4°F11.9°C 42.3°F5.7°C 66% 5.8 mph SSW9.3 kmh SSW 8.1 mph13.0 kmh 29.71 in1006.1 mb - 0.00 in0.0 mm 0.02 in0.5 mm
11:35 AM 52.9°F11.6°C 41.5°F5.3°C 65% 6.9 mph S11.1 kmh S 8.1 mph13.0 kmh 29.71 in1006.1 mb - 0.00 in0.0 mm 0.02 in0.5 mm
11:40 AM 52.7°F11.5°C 40.9°F4.9°C 64% 6.9 mph S11.1 kmh S 8.1 mph13.0 kmh 29.71 in1006.1 mb - 0.00 in0.0 mm 0.02 in0.5 mm
11:45 AM 52.7°F11.5°C 40.9°F4.9°C 64% 5.8 mph S9.3 kmh S 6.9 mph11.1 kmh 29.71 in1006.1 mb - 0.00 in0.0 mm 0.02 in0.5 mm
11:50 AM 52.0°F11.1°C 39.4°F4.1°C 62% 6.9 mph S11.1 kmh S 9.2 mph14.8 kmh 29.71 in1006.1 mb - 0.00 in0.0 mm 0.02 in0.5 mm
11:55 AM 52.0°F11.1°C 39.8°F4.3°C 63% 8.1 mph SSW13.0 kmh SSW 11.5 mph18.5 kmh 29.71 in1006.1 mb - 0.00 in0.0 mm 0.02 in0.5 mm
12:00 PM 52.0°F11.1°C 39.4°F4.1°C 62% 8.1 mph S13.0 kmh S 10.4 mph16.7 kmh 29.71 in1006.1 mb - 0.00 in0.0 mm 0.02 in0.5 mm
12:10 PM 51.1°F10.6°C 38.5°F3.6°C 62% 5.8 mph S9.3 kmh S 5.8 mph9.3 kmh 29.74 in1007.1 mb - 0.00 in0.0 mm 0.02 in0.5 mm
12:15 PM 50.9°F10.5°C 38.3°F3.5°C 62% 6.9 mph SSW11.1 kmh SSW 8.1 mph13.0 kmh 29.74 in1007.1 mb - 0.00 in0.0 mm 0.02 in0.5 mm
12:20 PM 50.9°F10.5°C 38.7°F3.7°C 63% 5.8 mph S9.3 kmh S 6.9 mph11.1 kmh 29.74 in1007.1 mb - 0.00 in0.0 mm 0.02 in0.5 mm
12:25 PM 50.9°F10.5°C 38.7°F3.7°C 63% 6.9 mph S11.1 kmh S 12.7 mph20.4 kmh 29.74 in1007.1 mb - 0.00 in0.0 mm 0.02 in0.5 mm
12:30 PM 50.5°F10.3°C 38.4°F3.6°C 63% 8.1 mph S13.0 kmh S 10.4 mph16.7 kmh 29.74 in1007.1 mb - 0.00 in0.0 mm 0.02 in0.5 mm
12:35 PM 50.5°F10.3°C 38.8°F3.8°C 64% 5.8 mph S9.3 kmh S 6.9 mph11.1 kmh 29.74 in1007.1 mb - 0.00 in0.0 mm 0.02 in0.5 mm
12:40 PM 50.5°F10.3°C 38.8°F3.8°C 64% 6.9 mph S11.1 kmh S 10.4 mph16.7 kmh 29.74 in1007.1 mb - 0.00 in0.0 mm 0.02 in0.5 mm
12:45 PM 50.4°F10.2°C 38.6°F3.7°C 64% 8.1 mph S13.0 kmh S 9.2 mph14.8 kmh 29.74 in1007.1 mb - 0.00 in0.0 mm 0.02 in0.5 mm
12:50 PM 50.2°F10.1°C 38.5°F3.6°C 64% 5.8 mph S9.3 kmh S 10.4 mph16.7 kmh 29.74 in1007.1 mb - 0.00 in0.0 mm 0.02 in0.5 mm
12:55 PM 50.2°F10.1°C 38.5°F3.6°C 64% 5.8 mph S9.3 kmh S 8.1 mph13.0 kmh 29.74 in1007.1 mb - 0.00 in0.0 mm 0.02 in0.5 mm
01:00 PM 49.8°F9.9°C 38.5°F3.6°C 65% 6.9 mph S11.1 kmh S 10.4 mph16.7 kmh 29.74 in1007.1 mb - 0.00 in0.0 mm 0.02 in0.5 mm
01:10 PM 49.8°F9.9°C 38.5°F3.6°C 65% 4.6 mph S7.4 kmh S 6.9 mph11.1 kmh 29.74 in1007.1 mb - 0.00 in0.0 mm 0.02 in0.5 mm
01:15 PM 49.8°F9.9°C 38.5°F3.6°C 65% 4.6 mph S7.4 kmh S 8.1 mph13.0 kmh 29.74 in1007.1 mb - 0.00 in0.0 mm 0.02 in0.5 mm
01:20 PM 49.8°F9.9°C 38.5°F3.6°C 65% 8.1 mph S13.0 kmh S 11.5 mph18.5 kmh 29.74 in1007.1 mb - 0.00 in0.0 mm 0.02 in0.5 mm
01:25 PM 50.0°F10.0°C 38.7°F3.7°C 65% 5.8 mph SSE9.3 kmh SSE 10.4 mph16.7 kmh 29.74 in1007.1 mb - 0.00 in0.0 mm 0.02 in0.5 mm
01:30 PM 50.0°F10.0°C 38.7°F3.7°C 65% 6.9 mph S11.1 kmh S 9.2 mph14.8 kmh 29.74 in1007.1 mb - 0.00 in0.0 mm 0.02 in0.5 mm
01:35 PM 50.0°F10.0°C 38.7°F3.7°C 65% 5.8 mph SSE9.3 kmh SSE 8.1 mph13.0 kmh 29.74 in1007.1 mb - 0.00 in0.0 mm 0.02 in0.5 mm
01:40 PM 50.2°F10.1°C 38.9°F3.8°C 65% 8.1 mph SSE13.0 kmh SSE 12.7 mph20.4 kmh 29.74 in1007.1 mb - 0.00 in0.0 mm 0.02 in0.5 mm
01:45 PM 50.2°F10.1°C 39.3°F4.1°C 66% 8.1 mph S13.0 kmh S 11.5 mph18.5 kmh 29.74 in1007.1 mb - 0.00 in0.0 mm 0.02 in0.5 mm
01:50 PM 50.2°F10.1°C 39.3°F4.1°C 66% 4.6 mph S7.4 kmh S 6.9 mph11.1 kmh 29.74 in1007.1 mb - 0.00 in0.0 mm 0.02 in0.5 mm
01:55 PM 50.4°F10.2°C 39.4°F4.1°C 66% 8.1 mph SSE13.0 kmh SSE 9.2 mph14.8 kmh 29.74 in1007.1 mb - 0.00 in0.0 mm 0.02 in0.5 mm
02:00 PM 50.2°F10.1°C 39.3°F4.1°C 66% 6.9 mph S11.1 kmh S 10.4 mph16.7 kmh 29.74 in1007.1 mb - 0.00 in0.0 mm 0.02 in0.5 mm
02:10 PM 50.3°F10.2°C 39.3°F4.1°C 66% 6.9 mph SSE11.1 kmh SSE 10.4 mph16.7 kmh 29.74 in1007.1 mb - 0.00 in0.0 mm 0.02 in0.5 mm
02:15 PM 50.2°F10.1°C 39.3°F4.1°C 66% 6.9 mph S11.1 kmh S 8.1 mph13.0 kmh 29.74 in1007.1 mb - 0.00 in0.0 mm 0.02 in0.5 mm
02:20 PM 50.2°F10.1°C 39.6°F4.2°C 67% 8.1 mph S13.0 kmh S 9.2 mph14.8 kmh 29.74 in1007.1 mb - 0.00 in0.0 mm 0.02 in0.5 mm
02:25 PM 50.2°F10.1°C 39.6°F4.2°C 67% 6.9 mph S11.1 kmh S 10.4 mph16.7 kmh 29.74 in1007.1 mb - 0.00 in0.0 mm 0.02 in0.5 mm
02:30 PM 50.0°F10.0°C 39.5°F4.2°C 67% 5.8 mph S9.3 kmh S 11.5 mph18.5 kmh 29.74 in1007.1 mb - 0.00 in0.0 mm 0.02 in0.5 mm
02:35 PM 50.0°F10.0°C 39.5°F4.2°C 67% 5.8 mph SSE9.3 kmh SSE 9.2 mph14.8 kmh 29.74 in1007.1 mb - 0.00 in0.0 mm 0.02 in0.5 mm
02:40 PM 49.8°F9.9°C 39.7°F4.3°C 68% 8.1 mph S13.0 kmh S 10.4 mph16.7 kmh 29.74 in1007.1 mb - 0.00 in0.0 mm 0.02 in0.5 mm
02:45 PM 49.8°F9.9°C 39.7°F4.3°C 68% 8.1 mph S13.0 kmh S 11.5 mph18.5 kmh 29.74 in1007.1 mb - 0.00 in0.0 mm 0.02 in0.5 mm
02:50 PM 49.8°F9.9°C 39.7°F4.3°C 68% 5.8 mph S9.3 kmh S 6.9 mph11.1 kmh 29.74 in1007.1 mb - 0.00 in0.0 mm 0.02 in0.5 mm
02:55 PM 49.8°F9.9°C 39.7°F4.3°C 68% 8.1 mph S13.0 kmh S 9.2 mph14.8 kmh 29.74 in1007.1 mb - 0.00 in0.0 mm 0.02 in0.5 mm
03:00 PM 49.6°F9.8°C 39.9°F4.4°C 69% 6.9 mph S11.1 kmh S 9.2 mph14.8 kmh 29.74 in1007.1 mb - 0.00 in0.0 mm 0.02 in0.5 mm
03:10 PM 49.6°F9.8°C 39.5°F4.2°C 68% 8.1 mph S13.0 kmh S 11.5 mph18.5 kmh 29.74 in1007.1 mb - 0.00 in0.0 mm 0.02 in0.5 mm
03:15 PM 49.5°F9.7°C 39.3°F4.1°C 68% 6.9 mph SSE11.1 kmh SSE 10.4 mph16.7 kmh 29.74 in1007.1 mb - 0.00 in0.0 mm 0.02 in0.5 mm
03:20 PM 49.5°F9.7°C 39.3°F4.1°C 68% 10.4 mph S16.7 kmh S 15.0 mph24.1 kmh 29.74 in1007.1 mb - 0.00 in0.0 mm 0.02 in0.5 mm
03:25 PM 49.5°F9.7°C 39.3°F4.1°C 68% 8.1 mph S13.0 kmh S 11.5 mph18.5 kmh 29.74 in1007.1 mb - 0.00 in0.0 mm 0.02 in0.5 mm
03:30 PM 49.3°F9.6°C 39.2°F4.0°C 68% 8.1 mph S13.0 kmh S 9.2 mph14.8 kmh 29.74 in1007.1 mb - 0.00 in0.0 mm 0.02 in0.5 mm
03:35 PM 49.1°F9.5°C 39.0°F3.9°C 68% 11.5 mph SSE18.5 kmh SSE 11.5 mph18.5 kmh 29.74 in1007.1 mb - 0.00 in0.0 mm 0.02 in0.5 mm
03:40 PM 49.1°F9.5°C 39.4°F4.1°C 69% 8.1 mph SSE13.0 kmh SSE 13.8 mph22.2 kmh 29.74 in1007.1 mb - 0.00 in0.0 mm 0.02 in0.5 mm
03:45 PM 48.9°F9.4°C 39.2°F4.0°C 69% 8.1 mph S13.0 kmh S 11.5 mph18.5 kmh 29.74 in1007.1 mb - 0.00 in0.0 mm 0.02 in0.5 mm
03:50 PM 48.7°F9.3°C 39.0°F3.9°C 69% 8.1 mph S13.0 kmh S 10.4 mph16.7 kmh 29.74 in1007.1 mb - 0.00 in0.0 mm 0.02 in0.5 mm
03:55 PM 48.7°F9.3°C 39.0°F3.9°C 69% 9.2 mph S14.8 kmh S 11.5 mph18.5 kmh 29.74 in1007.1 mb - 0.00 in0.0 mm 0.02 in0.5 mm
04:00 PM 48.7°F9.3°C 39.0°F3.9°C 69% 9.2 mph S14.8 kmh S 13.8 mph22.2 kmh 29.74 in1007.1 mb - 0.00 in0.0 mm 0.02 in0.5 mm
04:10 PM 48.7°F9.3°C 39.4°F4.1°C 70% 6.9 mph SSE11.1 kmh SSE 8.1 mph13.0 kmh 29.74 in1007.1 mb - 0.00 in0.0 mm 0.02 in0.5 mm
04:15 PM 48.7°F9.3°C 39.4°F4.1°C 70% 6.9 mph SE11.1 kmh SE 10.4 mph16.7 kmh 29.74 in1007.1 mb - 0.00 in0.0 mm 0.02 in0.5 mm
04:20 PM 48.7°F9.3°C 39.4°F4.1°C 70% 8.1 mph SSE13.0 kmh SSE 11.5 mph18.5 kmh 29.74 in1007.1 mb - 0.00 in0.0 mm 0.02 in0.5 mm
04:25 PM 48.7°F9.3°C 39.4°F4.1°C 70% 6.9 mph S11.1 kmh S 11.5 mph18.5 kmh 29.74 in1007.1 mb - 0.00 in0.0 mm 0.02 in0.5 mm
04:30 PM 48.7°F9.3°C 39.4°F4.1°C 70% 9.2 mph S14.8 kmh S 13.8 mph22.2 kmh 29.74 in1007.1 mb - 0.00 in0.0 mm 0.02 in0.5 mm
04:35 PM 48.7°F9.3°C 39.4°F4.1°C 70% 10.4 mph S16.7 kmh S 13.8 mph22.2 kmh 29.74 in1007.1 mb - 0.00 in0.0 mm 0.02 in0.5 mm
04:40 PM 48.7°F9.3°C 39.8°F4.3°C 71% 8.1 mph SE13.0 kmh SE 10.4 mph16.7 kmh 29.71 in1006.1 mb - 0.00 in0.0 mm 0.02 in0.5 mm
04:45 PM 48.7°F9.3°C 39.8°F4.3°C 71% 8.1 mph SE13.0 kmh SE 12.7 mph20.4 kmh 29.71 in1006.1 mb - 0.00 in0.0 mm 0.02 in0.5 mm
04:50 PM 48.7°F9.3°C 39.8°F4.3°C 71% 6.9 mph S11.1 kmh S 10.4 mph16.7 kmh 29.71 in1006.1 mb - 0.00 in0.0 mm 0.02 in0.5 mm
04:55 PM 48.7°F9.3°C 39.8°F4.3°C 71% 8.1 mph SSE13.0 kmh SSE 10.4 mph16.7 kmh 29.74 in1007.1 mb - 0.00 in0.0 mm 0.02 in0.5 mm
05:00 PM 48.7°F9.3°C 39.8°F4.3°C 71% 5.8 mph S9.3 kmh S 9.2 mph14.8 kmh 29.74 in1007.1 mb - 0.00 in0.0 mm 0.02 in0.5 mm
05:10 PM 48.8°F9.3°C 39.8°F4.3°C 71% 9.2 mph SSE14.8 kmh SSE 12.7 mph20.4 kmh 29.74 in1007.1 mb - 0.00 in0.0 mm 0.02 in0.5 mm
05:15 PM 48.9°F9.4°C 40.3°F4.6°C 72% 8.1 mph SSE13.0 kmh SSE 11.5 mph18.5 kmh 29.74 in1007.1 mb - 0.00 in0.0 mm 0.02 in0.5 mm
05:20 PM 48.9°F9.4°C 40.3°F4.6°C 72% 12.7 mph S20.4 kmh S 18.4 mph29.6 kmh 29.74 in1007.1 mb - 0.00 in0.0 mm 0.02 in0.5 mm
05:25 PM 49.1°F9.5°C 40.5°F4.7°C 72% 11.5 mph S18.5 kmh S 13.8 mph22.2 kmh 29.71 in1006.1 mb - 0.00 in0.0 mm 0.02 in0.5 mm
05:30 PM 49.1°F9.5°C 40.5°F4.7°C 72% 10.4 mph S16.7 kmh S 13.8 mph22.2 kmh 29.71 in1006.1 mb - 0.00 in0.0 mm 0.02 in0.5 mm
05:35 PM 48.9°F9.4°C 40.3°F4.6°C 72% 10.4 mph SSE16.7 kmh SSE 12.7 mph20.4 kmh 29.71 in1006.1 mb - 0.00 in0.0 mm 0.02 in0.5 mm
05:40 PM 48.9°F9.4°C 40.3°F4.6°C 72% 9.2 mph SSE14.8 kmh SSE 13.8 mph22.2 kmh 29.71 in1006.1 mb - 0.00 in0.0 mm 0.02 in0.5 mm
05:45 PM 48.7°F9.3°C 40.5°F4.7°C 73% 8.1 mph SSE13.0 kmh SSE 10.4 mph16.7 kmh 29.71 in1006.1 mb - 0.00 in0.0 mm 0.02 in0.5 mm
05:50 PM 48.7°F9.3°C 40.5°F4.7°C 73% 10.4 mph SSE16.7 kmh SSE 13.8 mph22.2 kmh 29.71 in1006.1 mb - 0.00 in0.0 mm 0.02 in0.5 mm
05:55 PM 48.6°F9.2°C 40.3°F4.6°C 73% 6.9 mph SSE11.1 kmh SSE 8.1 mph13.0 kmh 29.74 in1007.1 mb - 0.00 in0.0 mm 0.02 in0.5 mm
06:00 PM 48.6°F9.2°C 40.3°F4.6°C 73% 9.2 mph SSE14.8 kmh SSE 11.5 mph18.5 kmh 29.74 in1007.1 mb - 0.00 in0.0 mm 0.02 in0.5 mm
06:10 PM 48.6°F9.2°C 40.6°F4.8°C 74% 11.5 mph S18.5 kmh S 13.8 mph22.2 kmh 29.71 in1006.1 mb - 0.02 in0.5 mm 0.03 in0.8 mm
06:15 PM 48.6°F9.2°C 41.1°F5.1°C 75% 10.4 mph S16.7 kmh S 13.8 mph22.2 kmh 29.71 in1006.1 mb - 0.02 in0.5 mm 0.03 in0.8 mm
06:20 PM 48.6°F9.2°C 41.3°F5.2°C 76% 8.1 mph SSE13.0 kmh SSE 9.2 mph14.8 kmh 29.71 in1006.1 mb - 0.04 in1.0 mm 0.05 in1.3 mm
06:25 PM 48.6°F9.2°C 41.3°F5.2°C 76% 8.1 mph S13.0 kmh S 15.0 mph24.1 kmh 29.71 in1006.1 mb - 0.04 in1.0 mm 0.05 in1.3 mm
06:30 PM 48.4°F9.1°C 41.2°F5.1°C 76% 9.2 mph S14.8 kmh S 13.8 mph22.2 kmh 29.71 in1006.1 mb - 0.04 in1.0 mm 0.05 in1.3 mm
06:35 PM 48.4°F9.1°C 41.2°F5.1°C 76% 10.4 mph SSE16.7 kmh SSE 13.8 mph22.2 kmh 29.71 in1006.1 mb - 0.04 in1.0 mm 0.05 in1.3 mm
06:40 PM 48.4°F9.1°C 41.2°F5.1°C 76% 10.4 mph S16.7 kmh S 15.0 mph24.1 kmh 29.71 in1006.1 mb - 0.04 in1.0 mm 0.05 in1.3 mm
06:45 PM 48.4°F9.1°C 41.5°F5.3°C 77% 10.4 mph SSE16.7 kmh SSE 11.5 mph18.5 kmh 29.71 in1006.1 mb - 0.05 in1.3 mm 0.07 in1.8 mm
06:50 PM 48.4°F9.1°C 41.5°F5.3°C 77% 8.1 mph S13.0 kmh S 11.5 mph18.5 kmh 29.71 in1006.1 mb - 0.05 in1.3 mm 0.07 in1.8 mm
06:55 PM 48.4°F9.1°C 41.5°F5.3°C 77% 9.2 mph S14.8 kmh S 11.5 mph18.5 kmh 29.71 in1006.1 mb - 0.05 in1.3 mm 0.07 in1.8 mm
07:00 PM 48.4°F9.1°C 41.5°F5.3°C 77% 9.2 mph S14.8 kmh S 12.7 mph20.4 kmh 29.71 in1006.1 mb - 0.05 in1.3 mm 0.07 in1.8 mm
07:10 PM 48.5°F9.2°C 42.0°F5.6°C 78% 11.5 mph S18.5 kmh S 13.8 mph22.2 kmh 29.71 in1006.1 mb - 0.04 in1.0 mm 0.07 in1.8 mm
07:15 PM 48.4°F9.1°C 41.8°F5.4°C 78% 8.1 mph SSE13.0 kmh SSE 11.5 mph18.5 kmh 29.71 in1006.1 mb - 0.05 in1.3 mm 0.09 in2.3 mm
07:20 PM 48.2°F9.0°C 41.7°F5.4°C 78% 6.9 mph SE11.1 kmh SE 9.2 mph14.8 kmh 29.71 in1006.1 mb - 0.03 in0.8 mm 0.09 in2.3 mm
07:25 PM 48.2°F9.0°C 41.7°F5.4°C 78% 8.1 mph SE13.0 kmh SE 11.5 mph18.5 kmh 29.71 in1006.1 mb - 0.03 in0.8 mm 0.09 in2.3 mm
07:30 PM 48.3°F9.1°C 42.1°F5.6°C 79% 9.2 mph SE14.8 kmh SE 11.5 mph18.5 kmh 29.71 in1006.1 mb - 0.03 in0.8 mm 0.09 in2.3 mm
07:35 PM 48.4°F9.1°C 42.2°F5.7°C 79% 9.2 mph SE14.8 kmh SE 11.5 mph18.5 kmh 29.71 in1006.1 mb - 0.03 in0.8 mm 0.09 in2.3 mm
07:40 PM 48.7°F9.3°C 42.8°F6.0°C 80% 10.4 mph SSE16.7 kmh SSE 13.8 mph22.2 kmh 29.68 in1005.1 mb - 0.03 in0.8 mm 0.09 in2.3 mm
07:45 PM 49.0°F9.4°C 43.1°F6.2°C 80% 11.5 mph SSE18.5 kmh SSE 13.8 mph22.2 kmh 29.68 in1005.1 mb - 0.02 in0.5 mm 0.09 in2.3 mm
07:50 PM 49.1°F9.5°C 43.2°F6.2°C 80% 10.4 mph SSE16.7 kmh SSE 11.5 mph18.5 kmh 29.68 in1005.1 mb - 0.02 in0.5 mm 0.09 in2.3 mm
07:55 PM 49.3°F9.6°C 43.8°F6.6°C 81% 11.5 mph S18.5 kmh S 13.8 mph22.2 kmh 29.68 in1005.1 mb - 0.02 in0.5 mm 0.09 in2.3 mm
08:00 PM 49.6°F9.8°C 44.0°F6.7°C 81% 10.4 mph SSE16.7 kmh SSE 16.1 mph25.9 kmh 29.68 in1005.1 mb - 0.02 in0.5 mm 0.09 in2.3 mm
08:10 PM 49.6°F9.8°C 44.0°F6.7°C 81% 11.5 mph S18.5 kmh S 16.1 mph25.9 kmh 29.68 in1005.1 mb - 0.02 in0.5 mm 0.09 in2.3 mm
08:15 PM 49.8°F9.9°C 44.2°F6.8°C 81% 11.5 mph S18.5 kmh S 13.8 mph22.2 kmh 29.68 in1005.1 mb - 0.00 in0.0 mm 0.09 in2.3 mm
08:20 PM 49.8°F9.9°C 44.2°F6.8°C 81% 12.7 mph S20.4 kmh S 19.6 mph31.5 kmh 29.68 in1005.1 mb - 0.00 in0.0 mm 0.09 in2.3 mm
08:25 PM 50.0°F10.0°C 44.4°F6.9°C 81% 12.7 mph SSE20.4 kmh SSE 15.0 mph24.1 kmh 29.68 in1005.1 mb - 0.00 in0.0 mm 0.09 in2.3 mm
08:30 PM 50.0°F10.0°C 44.4°F6.9°C 81% 10.4 mph SSE16.7 kmh SSE 13.8 mph22.2 kmh 29.68 in1005.1 mb - 0.00 in0.0 mm 0.09 in2.3 mm
08:35 PM 50.0°F10.0°C 44.4°F6.9°C 81% 10.4 mph S16.7 kmh S 12.7 mph20.4 kmh 29.68 in1005.1 mb - 0.00 in0.0 mm 0.09 in2.3 mm
08:40 PM 50.0°F10.0°C 44.4°F6.9°C 81% 10.4 mph S16.7 kmh S 12.7 mph20.4 kmh 29.65 in1004.1 mb - 0.00 in0.0 mm 0.09 in2.3 mm
08:45 PM 50.0°F10.0°C 44.1°F6.7°C 80% 10.4 mph S16.7 kmh S 13.8 mph22.2 kmh 29.65 in1004.1 mb - 0.00 in0.0 mm 0.09 in2.3 mm
08:50 PM 50.0°F10.0°C 44.1°F6.7°C 80% 11.5 mph SSE18.5 kmh SSE 18.4 mph29.6 kmh 29.65 in1004.1 mb - 0.00 in0.0 mm 0.09 in2.3 mm
08:55 PM 50.1°F10.1°C 44.2°F6.8°C 80% 11.5 mph S18.5 kmh S 13.8 mph22.2 kmh 29.68 in1005.1 mb - 0.00 in0.0 mm 0.09 in2.3 mm
09:00 PM 50.0°F10.0°C 44.1°F6.7°C 80% 9.2 mph SE14.8 kmh SE 10.4 mph16.7 kmh 29.68 in1005.1 mb - 0.00 in0.0 mm 0.09 in2.3 mm
09:10 PM 50.0°F10.0°C 44.1°F6.7°C 80% 8.1 mph S13.0 kmh S 11.5 mph18.5 kmh 29.68 in1005.1 mb - 0.00 in0.0 mm 0.09 in2.3 mm
09:15 PM 50.0°F10.0°C 44.1°F6.7°C 80% 8.1 mph S13.0 kmh S 12.7 mph20.4 kmh 29.68 in1005.1 mb - 0.00 in0.0 mm 0.09 in2.3 mm
09:20 PM 50.2°F10.1°C 44.2°F6.8°C 80% 10.4 mph S16.7 kmh S 11.5 mph18.5 kmh 29.68 in1005.1 mb - 0.00 in0.0 mm 0.09 in2.3 mm
09:25 PM 50.2°F10.1°C 44.2°F6.8°C 80% 9.2 mph S14.8 kmh S 12.7 mph20.4 kmh 29.68 in1005.1 mb - 0.00 in0.0 mm 0.09 in2.3 mm
09:30 PM 50.2°F10.1°C 44.2°F6.8°C 80% 10.4 mph SSE16.7 kmh SSE 10.4 mph16.7 kmh 29.68 in1005.1 mb - 0.00 in0.0 mm 0.09 in2.3 mm
09:35 PM 50.2°F10.1°C 44.2°F6.8°C 80% 8.1 mph S13.0 kmh S 11.5 mph18.5 kmh 29.68 in1005.1 mb - 0.00 in0.0 mm 0.09 in2.3 mm
09:40 PM 50.2°F10.1°C 44.2°F6.8°C 80% 8.1 mph S13.0 kmh S 9.2 mph14.8 kmh 29.68 in1005.1 mb - 0.00 in0.0 mm 0.09 in2.3 mm
09:45 PM 50.2°F10.1°C 44.2°F6.8°C 80% 8.1 mph S13.0 kmh S 16.1 mph25.9 kmh 29.68 in1005.1 mb - 0.00 in0.0 mm 0.09 in2.3 mm
09:50 PM 50.2°F10.1°C 44.2°F6.8°C 80% 9.2 mph SSE14.8 kmh SSE 13.8 mph22.2 kmh 29.68 in1005.1 mb - 0.00 in0.0 mm 0.09 in2.3 mm
09:55 PM 50.2°F10.1°C 44.2°F6.8°C 80% 6.9 mph SSE11.1 kmh SSE 9.2 mph14.8 kmh 29.68 in1005.1 mb - 0.00 in0.0 mm 0.09 in2.3 mm
10:00 PM 50.2°F10.1°C 44.2°F6.8°C 80% 6.9 mph SSE11.1 kmh SSE 9.2 mph14.8 kmh 29.68 in1005.1 mb - 0.00 in0.0 mm 0.09 in2.3 mm
10:10 PM 50.2°F10.1°C 44.2°F6.8°C 80% 6.9 mph SSE11.1 kmh SSE 10.4 mph16.7 kmh 29.68 in1005.1 mb - 0.00 in0.0 mm 0.09 in2.3 mm
10:15 PM 50.2°F10.1°C 44.2°F6.8°C 80% 8.1 mph SSE13.0 kmh SSE 9.2 mph14.8 kmh 29.68 in1005.1 mb - 0.00 in0.0 mm 0.09 in2.3 mm
10:20 PM 50.2°F10.1°C 44.2°F6.8°C 80% 9.2 mph SSE14.8 kmh SSE 11.5 mph18.5 kmh 29.68 in1005.1 mb - 0.00 in0.0 mm 0.09 in2.3 mm
10:25 PM 50.2°F10.1°C 43.9°F6.6°C 79% 10.4 mph SE16.7 kmh SE 15.0 mph24.1 kmh 29.65 in1004.1 mb - 0.00 in0.0 mm 0.09 in2.3 mm
10:30 PM 50.2°F10.1°C 43.9°F6.6°C 79% 9.2 mph SE14.8 kmh SE 10.4 mph16.7 kmh 29.65 in1004.1 mb - 0.00 in0.0 mm 0.09 in2.3 mm
10:35 PM 50.2°F10.1°C 43.9°F6.6°C 79% 8.1 mph SE13.0 kmh SE 12.7 mph20.4 kmh 29.65 in1004.1 mb - 0.00 in0.0 mm 0.09 in2.3 mm
10:40 PM 50.2°F10.1°C 43.9°F6.6°C 79% 9.2 mph SE14.8 kmh SE 11.5 mph18.5 kmh 29.68 in1005.1 mb - 0.00 in0.0 mm 0.09 in2.3 mm
10:45 PM 50.2°F10.1°C 43.9°F6.6°C 79% 9.2 mph SSE14.8 kmh SSE 11.5 mph18.5 kmh 29.68 in1005.1 mb - 0.00 in0.0 mm 0.09 in2.3 mm
10:50 PM 50.2°F10.1°C 43.9°F6.6°C 79% 9.2 mph SSW14.8 kmh SSW 11.5 mph18.5 kmh 29.68 in1005.1 mb - 0.00 in0.0 mm 0.09 in2.3 mm
10:55 PM 50.2°F10.1°C 43.9°F6.6°C 79% 9.2 mph SSE14.8 kmh SSE 10.4 mph16.7 kmh 29.68 in1005.1 mb - 0.00 in0.0 mm 0.09 in2.3 mm
11:00 PM 50.2°F10.1°C 43.9°F6.6°C 79% 9.2 mph S14.8 kmh S 13.8 mph22.2 kmh 29.68 in1005.1 mb - 0.00 in0.0 mm 0.09 in2.3 mm
11:10 PM 50.2°F10.1°C 43.6°F6.4°C 78% 6.9 mph S11.1 kmh S 10.4 mph16.7 kmh 29.68 in1005.1 mb - 0.00 in0.0 mm 0.09 in2.3 mm
11:15 PM 50.2°F10.1°C 43.6°F6.4°C 78% 6.9 mph S11.1 kmh S 8.1 mph13.0 kmh 29.68 in1005.1 mb - 0.00 in0.0 mm 0.09 in2.3 mm
11:20 PM 50.2°F10.1°C 43.2°F6.2°C 77% 8.1 mph SSE13.0 kmh SSE 11.5 mph18.5 kmh 29.68 in1005.1 mb - 0.00 in0.0 mm 0.09 in2.3 mm
11:25 PM 50.2°F10.1°C 43.2°F6.2°C 77% 6.9 mph S11.1 kmh S 10.4 mph16.7 kmh 29.65 in1004.1 mb - 0.00 in0.0 mm 0.09 in2.3 mm
11:30 PM 50.2°F10.1°C 43.2°F6.2°C 77% 8.1 mph S13.0 kmh S 10.4 mph16.7 kmh 29.65 in1004.1 mb - 0.00 in0.0 mm 0.09 in2.3 mm
11:35 PM 50.0°F10.0°C 42.7°F5.9°C 76% 9.2 mph S14.8 kmh S 11.5 mph18.5 kmh 29.65 in1004.1 mb - 0.00 in0.0 mm 0.09 in2.3 mm
11:40 PM 50.0°F10.0°C 42.7°F5.9°C 76% 9.2 mph S14.8 kmh S 11.5 mph18.5 kmh 29.68 in1005.1 mb - 0.00 in0.0 mm 0.09 in2.3 mm
11:45 PM 50.2°F10.1°C 42.9°F6.1°C 76% 10.4 mph S16.7 kmh S 12.7 mph20.4 kmh 29.68 in1005.1 mb - 0.00 in0.0 mm 0.09 in2.3 mm
11:50 PM 50.2°F10.1°C 42.6°F5.9°C 75% 11.5 mph SSE18.5 kmh SSE 13.8 mph22.2 kmh 29.68 in1005.1 mb - 0.00 in0.0 mm 0.09 in2.3 mm
11:55 PM 50.1°F10.1°C 42.5°F5.8°C 75% 9.2 mph S14.8 kmh S 15.0 mph24.1 kmh 29.68 in1005.1 mb - 0.00 in0.0 mm 0.09 in2.3 mm